Terminal Aerodrome Forecast
Issued by NWS

Home | Current Version | Previous Version | Text Only | Print | Product List | Glossary On
Versions: 1 2 3 4 5 6 7 8 9 10 11 12 13 14 15 16 17
000
FTUS41 KRNK 060520
TAFLWB
TAF
KLWB 060520Z 0606/0706 05003KT P6SM OVC100
     FM060800 07003KT 6SM -RA BR OVC060
     FM061000 08004KT 4SM -RA BR OVC012
     FM061200 09006KT 3SM -RA BR OVC005
     FM062200 VRB04KT 1SM -DZ BR OVC004=

USA.gov is the U.S. government's official web portal to all federal, state and local government web resources and services.